createdAt,value
2022-09-14T00:04:45.098Z,5.35
2022-09-14T00:09:52.636Z,5.97
2022-09-14T00:15:20.965Z,5.18
2022-09-14T00:20:22.702Z,8.25
2022-09-14T00:25:27.648Z,5.38
2022-09-14T00:30:29.445Z,5.32
2022-09-14T00:35:31.133Z,3.53
2022-09-14T00:40:32.887Z,6.20
2022-09-14T00:45:45.117Z,7.65
2022-09-14T00:51:03.134Z,9.15
2022-09-14T00:56:05.029Z,5.97
2022-09-14T01:01:10.539Z,6.03
2022-09-14T01:06:21.315Z,7.03
2022-09-14T01:11:43.219Z,7.03
2022-09-14T01:17:29.600Z,12.70
2022-09-14T01:22:40.207Z,12.23
2022-09-14T01:27:46.664Z,10.95
2022-09-14T01:32:58.071Z,16.90
2022-09-14T01:44:38.659Z,14.68
2022-09-14T01:49:55.662Z,10.68
2022-09-14T01:55:04.326Z,13.40
2022-09-14T02:00:10.943Z,15.43
2022-09-14T02:05:26.668Z,13.90
2022-09-14T02:10:29.330Z,15.07
2022-09-14T02:15:31.136Z,17.13
2022-09-14T02:20:39.300Z,14.25
2022-09-14T02:25:41.199Z,25.08
2022-09-14T02:31:19.882Z,20.77
2022-09-14T02:36:48.720Z,23.50
2022-09-14T02:41:58.553Z,28.63
2022-09-14T02:47:28.296Z,20.27
2022-09-14T02:52:55.160Z,29.27
2022-09-14T02:58:11.716Z,24.98
2022-09-14T03:03:18.264Z,26.30
2022-09-14T03:08:19.793Z,22.40
2022-09-14T03:13:27.103Z,28.58
2022-09-14T03:18:28.619Z,20.13
2022-09-14T03:23:30.429Z,23.35
2022-09-14T03:28:31.989Z,27.50
2022-09-14T03:33:39.496Z,24.67
2022-09-14T03:38:48.760Z,27.65
2022-09-14T03:43:51.705Z,27.07
2022-09-14T03:48:55.892Z,31.13
2022-09-14T03:53:57.473Z,55.90
2022-09-14T03:58:59.017Z,105.88
2022-09-14T04:04:00.679Z,72.20
2022-09-14T04:09:02.588Z,70.90
2022-09-14T04:14:05.284Z,61.42
2022-09-14T04:19:07.221Z,87.13
2022-09-14T04:24:15.560Z,82.45
2022-09-14T04:29:17.808Z,80.57
2022-09-14T04:34:19.333Z,67.88
2022-09-14T04:39:21.094Z,70.00
2022-09-14T04:44:22.620Z,68.53
2022-09-14T04:49:27.182Z,60.63
2022-09-14T04:54:45.137Z,60.78
2022-09-14T04:59:46.654Z,62.22
2022-09-14T05:04:51.214Z,50.60
2022-09-14T05:09:52.727Z,60.72
2022-09-14T05:14:54.337Z,58.88
2022-09-14T05:19:55.877Z,45.92
2022-09-14T05:24:57.403Z,62.42
2022-09-14T05:29:58.923Z,52.65
2022-09-14T05:35:00.543Z,52.15
2022-09-14T05:40:02.269Z,52.28
2022-09-14T05:45:04.481Z,58.92
2022-09-14T05:50:08.439Z,61.22
2022-09-14T05:55:09.966Z,64.88
2022-09-14T06:00:12.108Z,65.78
2022-09-14T06:05:22.255Z,70.18
2022-09-14T06:10:23.855Z,89.38
2022-09-14T06:15:25.491Z,84.40
2022-09-14T06:20:27.089Z,92.68
2022-09-14T06:25:28.665Z,104.43
2022-09-14T06:30:33.192Z,123.55
2022-09-14T06:35:34.739Z,86.55
2022-09-14T06:40:36.454Z,113.45
2022-09-14T06:45:38.020Z,91.70
2022-09-14T06:50:39.540Z,93.28
2022-09-14T06:55:41.419Z,101.43
2022-09-14T07:00:43.184Z,125.10
2022-09-14T07:05:44.724Z,89.63
2022-09-14T07:10:55.898Z,90.63
2022-09-14T07:15:57.805Z,75.32
2022-09-14T07:21:11.287Z,72.25
2022-09-14T07:26:18.530Z,74.72
2022-09-14T07:31:33.301Z,63.65
2022-09-14T07:36:36.536Z,50.95
2022-09-14T07:41:39.620Z,45.13
2022-09-14T07:46:43.320Z,48.75
2022-09-14T07:51:45.811Z,39.00
2022-09-14T07:56:49.295Z,36.58
2022-09-14T08:01:51.184Z,29.30
2022-09-14T08:06:52.812Z,20.67
2022-09-14T08:12:04.401Z,17.90
2022-09-14T08:17:05.926Z,19.00
2022-09-14T08:22:07.437Z,12.23
2022-09-14T08:27:12.227Z,14.07
2022-09-14T08:32:13.967Z,11.65
2022-09-14T08:37:15.470Z,11.00
2022-09-14T08:42:19.305Z,10.90
2022-09-14T08:47:32.270Z,9.10
2022-09-14T08:52:38.544Z,9.40
2022-09-14T08:57:44.021Z,8.90
2022-09-14T09:03:19.686Z,7.47
2022-09-14T09:08:39.814Z,7.53
2022-09-14T09:13:43.005Z,6.10
2022-09-14T09:18:49.062Z,5.72
2022-09-14T09:23:51.001Z,4.78
2022-09-14T09:28:54.839Z,6.30
2022-09-14T09:33:56.433Z,6.47
2022-09-14T09:39:04.284Z,6.88
2022-09-14T09:44:11.142Z,5.43
2022-09-14T09:49:42.512Z,5.63
2022-09-14T09:54:51.040Z,4.25
2022-09-14T10:00:10.819Z,4.17
2022-09-14T10:05:13.701Z,11.68
2022-09-14T10:10:19.308Z,3.20
2022-09-14T10:15:34.944Z,4.88
2022-09-14T10:20:41.308Z,5.82
2022-09-14T10:25:42.968Z,6.65
2022-09-14T10:30:51.108Z,5.20
2022-09-14T10:36:14.767Z,4.57
2022-09-14T10:41:39.204Z,10.02
2022-09-14T10:47:21.787Z,3.53
2022-09-14T10:52:40.408Z,5.15
2022-09-14T10:58:01.961Z,6.40
2022-09-14T11:03:24.545Z,7.13
2022-09-14T11:08:40.799Z,6.30
2022-09-14T11:14:02.204Z,3.08
2022-09-14T11:19:22.812Z,6.47
2022-09-14T11:24:46.365Z,5.93
2022-09-14T11:29:53.810Z,5.20
2022-09-14T11:35:02.195Z,5.28
2022-09-14T11:40:15.045Z,7.43
2022-09-14T11:45:23.691Z,3.53
2022-09-14T11:50:31.562Z,4.03
2022-09-14T11:55:34.028Z,5.07
2022-09-14T12:01:03.678Z,5.40
2022-09-14T12:06:30.751Z,6.93
2022-09-14T12:11:36.074Z,4.47
2022-09-14T12:17:22.803Z,6.05
2022-09-14T12:22:32.783Z,19.85
2022-09-14T12:27:37.950Z,15.18
2022-09-14T12:32:42.730Z,16.65
2022-09-14T12:37:46.735Z,6.22
2022-09-14T12:42:48.284Z,9.88
2022-09-14T12:47:50.987Z,5.10
2022-09-14T12:53:18.214Z,5.93
2022-09-14T12:58:41.923Z,3.95
2022-09-14T13:03:50.826Z,5.45
2022-09-14T13:08:58.833Z,4.20
2022-09-14T13:14:01.821Z,4.35
2022-09-14T13:19:08.996Z,4.20
2022-09-14T13:24:28.153Z,5.93
2022-09-14T13:29:31.110Z,6.05
2022-09-14T13:34:37.063Z,4.72
2022-09-14T13:39:50.668Z,5.85
2022-09-14T13:44:53.023Z,6.30
2022-09-14T13:49:55.365Z,6.00
2022-09-14T13:55:38.656Z,4.93
2022-09-14T14:00:53.902Z,4.10
2022-09-14T14:05:55.743Z,5.72
2022-09-14T14:10:58.380Z,5.50
2022-09-14T14:16:20.405Z,4.90
2022-09-14T14:21:21.983Z,6.72
2022-09-14T14:26:27.440Z,5.68
2022-09-14T14:31:29.111Z,5.30
2022-09-14T14:36:30.765Z,4.07
2022-09-14T14:41:32.340Z,4.53
2022-09-14T14:46:34.187Z,5.13
2022-09-14T14:51:35.723Z,3.90
2022-09-14T14:56:38.485Z,3.33
2022-09-14T15:01:40.017Z,4.15
2022-09-14T15:06:41.750Z,4.47
2022-09-14T15:11:43.496Z,2.90
2022-09-14T15:16:46.238Z,3.78
2022-09-14T15:21:47.821Z,2.80
2022-09-14T15:26:49.369Z,4.70
2022-09-14T15:31:50.973Z,2.92
2022-09-14T15:36:54.033Z,5.00
2022-09-14T15:41:56.290Z,3.35
2022-09-14T15:46:57.896Z,3.00
2022-09-14T15:51:59.416Z,2.58
2022-09-14T15:57:01.333Z,2.42
2022-09-14T16:02:03.938Z,3.30
2022-09-14T16:07:09.781Z,3.20
2022-09-14T16:12:12.704Z,4.55
2022-09-14T16:17:14.327Z,2.90
2022-09-14T16:22:15.929Z,3.00
2022-09-14T16:27:17.503Z,3.67
2022-09-14T16:32:19.054Z,2.75
2022-09-14T16:37:20.819Z,3.33
2022-09-14T16:42:22.352Z,2.70
2022-09-14T16:47:25.668Z,3.47
2022-09-14T16:52:28.577Z,4.97
2022-09-14T16:57:30.088Z,3.17
2022-09-14T17:02:34.053Z,4.22
2022-09-14T17:07:35.632Z,5.80
2022-09-14T17:12:37.172Z,2.47
2022-09-14T17:17:38.805Z,4.55
2022-09-14T17:22:40.314Z,3.35
2022-09-14T17:27:41.873Z,2.65
2022-09-14T17:32:43.405Z,2.47
2022-09-14T17:37:44.975Z,3.47
2022-09-14T17:42:46.504Z,6.13
2022-09-14T17:47:48.033Z,3.65
2022-09-14T17:52:52.581Z,4.30
2022-09-14T17:57:54.150Z,3.88
2022-09-14T18:02:55.745Z,3.03
2022-09-14T18:07:57.744Z,3.33
2022-09-14T18:12:59.312Z,8.40
2022-09-14T18:18:00.906Z,7.85
2022-09-14T18:23:02.411Z,5.43
2022-09-14T18:28:03.920Z,5.25
2022-09-14T18:33:05.551Z,3.53
2022-09-14T18:38:07.690Z,3.00
2022-09-14T18:43:09.215Z,5.50
2022-09-14T18:48:10.853Z,3.22
2022-09-14T18:53:13.128Z,4.53
2022-09-14T18:58:14.651Z,8.10
2022-09-14T19:03:16.163Z,7.05
2022-09-14T19:08:17.683Z,5.78
2022-09-14T19:13:19.209Z,4.50
2022-09-14T19:18:20.751Z,6.43
2022-09-14T19:23:22.256Z,5.20
2022-09-14T19:28:23.786Z,6.25
2022-09-14T19:33:25.695Z,7.45
2022-09-14T19:38:28.765Z,3.65
2022-09-14T19:43:32.240Z,6.50
2022-09-14T19:48:34.735Z,5.57
2022-09-14T19:53:37.177Z,6.00
2022-09-14T19:58:40.967Z,8.07
2022-09-14T20:03:43.705Z,6.30
2022-09-14T20:08:46.831Z,8.88
2022-09-14T20:13:48.533Z,11.07
2022-09-14T20:18:51.619Z,5.72
2022-09-14T20:24:18.265Z,6.40
2022-09-14T20:29:22.709Z,4.97
2022-09-14T20:34:24.771Z,4.95
2022-09-14T20:39:27.310Z,4.45
2022-09-14T20:44:28.850Z,5.15
2022-09-14T20:49:30.377Z,6.60
2022-09-14T20:54:31.983Z,5.10
2022-09-14T20:59:33.711Z,6.10
2022-09-14T21:04:35.678Z,6.55
2022-09-14T21:09:37.197Z,5.90
2022-09-14T21:14:38.800Z,4.88
2022-09-14T21:19:40.396Z,6.10
2022-09-14T21:24:41.915Z,5.35
2022-09-14T21:29:43.416Z,5.28
2022-09-14T21:34:45.302Z,7.88
2022-09-14T21:39:47.676Z,6.47
2022-09-14T21:44:49.278Z,5.55
2022-09-14T21:49:50.809Z,8.10
2022-09-14T21:54:52.355Z,4.60
2022-09-14T21:59:53.881Z,5.55
2022-09-14T22:04:55.397Z,5.00
2022-09-14T22:09:56.943Z,6.38
2022-09-14T22:14:58.456Z,5.40
2022-09-14T22:20:00.683Z,11.70
2022-09-14T22:25:02.241Z,7.28
2022-09-14T22:30:04.005Z,6.78
2022-09-14T22:35:05.805Z,7.57
2022-09-14T22:40:07.807Z,8.50
2022-09-14T22:45:09.852Z,6.55
2022-09-14T22:50:11.413Z,6.15
2022-09-14T22:55:13.845Z,3.53
2022-09-14T23:00:15.652Z,5.18
2022-09-14T23:05:17.440Z,6.28
2022-09-14T23:10:19.052Z,4.45
2022-09-14T23:15:20.692Z,4.70
2022-09-14T23:20:22.331Z,5.45
2022-09-14T23:25:26.422Z,3.88
2022-09-14T23:30:28.151Z,6.18
2022-09-14T23:35:30.079Z,5.55
2022-09-14T23:40:31.645Z,3.80
2022-09-14T23:45:33.226Z,3.10
2022-09-14T23:50:35.025Z,3.05
2022-09-14T23:55:36.774Z,3.80
